Colinas de San Martin, Puerto Rico
Current Conditions -  °F | °C
As of 8:56 PM on Tuesday 21 Oct 2014 (Local Time) from TJSJ Reporting Station
Scattered Clouds Scattered Clouds  
Wind Chill: 82°   Ceiling: Unl
Heat Index: 89°   Visibility: 10mi
Dew Point: 75°   Wind: 6mph
Humidity: 79%   Direction: 100°E
Pressure: 29.95"   Gusts: NA
Location:  18.0561°N, 66.5063°W
Report Text: TJSJ 220056Z 10005KT 10SM FEW025 SCT065 28/24 A2995 RMK AO2 SLP142 T02780239
Loading
Personal Weather Stations






























Interactive Weather Map
Tropical Storm Tracking
New forecast layout! Learn more

10-Day Weather Forecast

Advertisements
Track Severe Weather on mobile